To NAV CANADA Home Page Login to a new session Search on AWWS site Feedback and Comments Disclaimer Vers la page française équivalente Tips FAQ What's new on the site To the Forecasts and Observations / NOTAM section To "File a Flight Plan" website Publications and other links Update of the User's profile FIC Telephone Numbers My Weather Data Folder Route Weather Data Regional Weather Data Local Weather Data To the Forecasts and Observations / NOTAM section
Request Generated 11/29/2015 at 19:23:43 UTC . Weather information available at that time is displayed.


CLYDE RIVER/NU    (show WxCam)

METAR CYCY 291900Z 27004KT 25SM FEW120 M29/M32 A2966 RMK AC1 SLP049=
METAR CYCY 291800Z 29005KT 25SM FEW120 M29/M33 A2966 RMK AC1 AC TR
METAR CYCY 291700Z 32003KT 290V360 25SM SKC M31/M34 A2966 RMK SLP049=

TAF CYCY 291838Z 2919/3007 33005KT P6SM SKC
Your time UTC time
Weather data provided by Environment Canada and NAV CANADA